createdAt,value
2017-10-01T00:01:06.206Z,19.20
2017-10-01T00:03:33.844Z,22.20
2017-10-01T00:06:01.464Z,19.02
2017-10-01T00:08:29.851Z,22.92
2017-10-01T00:10:58.181Z,22.00
2017-10-01T00:13:26.529Z,31.98
2017-10-01T00:15:54.129Z,27.77
2017-10-01T00:18:21.782Z,26.00
2017-10-01T00:20:49.394Z,24.58
2017-10-01T00:23:17.006Z,24.80
2017-10-01T00:25:44.637Z,30.62
2017-10-01T00:28:12.264Z,29.90
2017-10-01T00:30:40.629Z,25.00
2017-10-01T00:33:09.036Z,29.85
2017-10-01T00:35:37.482Z,27.83
2017-10-01T00:38:05.074Z,37.13
2017-10-01T00:40:33.454Z,28.65
2017-10-01T00:43:01.924Z,22.13
2017-10-01T00:45:29.565Z,33.67
2017-10-01T00:47:57.470Z,28.98
2017-10-01T00:50:25.135Z,26.30
2017-10-01T00:52:52.775Z,35.58
2017-10-01T00:55:21.545Z,36.20
2017-10-01T00:57:49.154Z,41.05
2017-10-01T01:00:16.795Z,33.38
2017-10-01T01:02:44.350Z,51.05
2017-10-01T01:05:12.750Z,57.53
2017-10-01T01:07:40.377Z,67.45
2017-10-01T01:10:07.972Z,72.12
2017-10-01T01:12:35.566Z,66.95
2017-10-01T01:15:03.174Z,82.43
2017-10-01T01:17:31.528Z,105.50
2017-10-01T01:19:59.077Z,84.78
2017-10-01T01:22:26.752Z,94.70
2017-10-01T01:24:54.380Z,82.40
2017-10-01T01:27:21.962Z,82.80
2017-10-01T01:29:49.579Z,79.43
2017-10-01T01:32:17.214Z,106.70
2017-10-01T01:34:45.602Z,87.78
2017-10-01T01:37:13.220Z,92.35
2017-10-01T01:39:40.815Z,82.65
2017-10-01T01:42:09.564Z,95.70
2017-10-01T01:44:37.176Z,50.03
2017-10-01T01:47:05.591Z,102.87
2017-10-01T01:49:33.258Z,83.90
2017-10-01T01:52:00.844Z,97.15
2017-10-01T01:54:28.630Z,93.97
2017-10-01T01:56:56.223Z,96.75
2017-10-01T01:59:24.432Z,104.45
2017-10-01T02:01:52.036Z,95.55
2017-10-01T02:04:20.422Z,115.35
2017-10-01T02:06:48.135Z,95.12
2017-10-01T02:09:15.780Z,83.72
2017-10-01T02:11:44.290Z,94.65
2017-10-01T02:14:12.000Z,83.22
2017-10-01T02:16:39.638Z,85.70
2017-10-01T02:19:08.005Z,80.68
2017-10-01T02:21:37.221Z,79.80
2017-10-01T02:24:04.836Z,68.00
2017-10-01T02:26:33.337Z,66.03
2017-10-01T02:29:00.921Z,57.30
2017-10-01T02:31:29.375Z,71.43
2017-10-01T02:33:57.264Z,94.45
2017-10-01T02:38:59.878Z,96.43
2017-10-01T02:41:27.453Z,85.68
2017-10-01T02:43:55.095Z,91.68
2017-10-01T02:46:22.681Z,100.35
2017-10-01T02:48:51.302Z,79.30
2017-10-01T02:51:18.927Z,77.60
2017-10-01T02:53:46.550Z,88.82
2017-10-01T02:56:14.926Z,78.40
2017-10-01T02:58:42.528Z,67.87
2017-10-01T03:01:10.204Z,78.35
2017-10-01T03:03:37.870Z,72.78
2017-10-01T03:06:05.490Z,90.93
2017-10-01T03:08:33.153Z,68.43
2017-10-01T03:11:00.783Z,65.10
2017-10-01T03:13:29.174Z,59.80
2017-10-01T03:15:56.765Z,67.60
2017-10-01T03:18:24.453Z,77.25
2017-10-01T03:20:52.057Z,68.60
2017-10-01T03:23:20.433Z,75.22
2017-10-01T03:25:48.846Z,73.65
2017-10-01T03:28:16.436Z,73.47
2017-10-01T03:30:44.944Z,72.65
2017-10-01T03:33:12.623Z,86.87
2017-10-01T03:35:41.083Z,87.85
2017-10-01T03:38:08.716Z,71.70
2017-10-01T03:40:36.672Z,80.50
2017-10-01T03:43:04.296Z,64.68
2017-10-01T03:45:31.932Z,73.22
2017-10-01T03:47:59.554Z,78.40
2017-10-01T03:50:27.150Z,78.75
2017-10-01T03:52:54.840Z,83.75
2017-10-01T03:55:23.224Z,92.43
2017-10-01T03:57:50.877Z,74.10
2017-10-01T04:00:19.497Z,72.18
2017-10-01T04:02:48.005Z,63.85
2017-10-01T04:05:15.634Z,64.87
2017-10-01T04:07:43.192Z,60.97
2017-10-01T04:10:10.858Z,79.70
2017-10-01T04:12:38.435Z,69.60
2017-10-01T04:15:06.088Z,69.00
2017-10-01T04:17:34.498Z,67.55
2017-10-01T04:20:02.080Z,78.55
2017-10-01T04:22:29.706Z,62.80
2017-10-01T04:24:57.305Z,64.97
2017-10-01T04:27:26.152Z,70.47
2017-10-01T04:29:54.718Z,72.57
2017-10-01T04:32:22.347Z,75.75
2017-10-01T04:34:50.739Z,71.65
2017-10-01T04:37:18.369Z,78.87
2017-10-01T04:39:46.015Z,70.22
2017-10-01T04:42:13.596Z,61.10
2017-10-01T04:44:42.044Z,50.92
2017-10-01T04:47:09.647Z,61.15
2017-10-01T04:49:38.075Z,81.35
2017-10-01T04:52:05.720Z,61.80
2017-10-01T04:54:35.032Z,69.40
2017-10-01T04:57:02.869Z,63.00
2017-10-01T04:59:30.482Z,54.53
2017-10-01T05:01:58.077Z,60.60
2017-10-01T05:04:26.405Z,68.12
2017-10-01T05:06:54.818Z,52.60
2017-10-01T05:09:22.423Z,70.68
2017-10-01T05:11:50.000Z,86.57
2017-10-01T05:14:18.363Z,81.95
2017-10-01T05:16:46.040Z,68.12
2017-10-01T05:19:13.674Z,91.28
2017-10-01T05:21:41.726Z,90.75
2017-10-01T05:24:10.106Z,77.35
2017-10-01T05:26:38.493Z,73.97
2017-10-01T05:29:06.861Z,89.40
2017-10-01T05:31:35.236Z,117.55
2017-10-01T05:34:03.631Z,70.15
2017-10-01T05:36:31.273Z,77.90
2017-10-01T05:38:58.887Z,125.90
2017-10-01T05:41:26.490Z,83.85
2017-10-01T05:43:54.861Z,77.22
2017-10-01T05:46:22.472Z,75.43
2017-10-01T05:48:50.088Z,55.83
2017-10-01T05:51:17.669Z,76.65
2017-10-01T05:53:45.336Z,57.03
2017-10-01T05:56:12.923Z,60.65
2017-10-01T05:58:40.548Z,53.55
2017-10-01T06:01:08.869Z,55.38
2017-10-01T06:03:36.471Z,65.60
2017-10-01T06:06:04.830Z,50.65
2017-10-01T06:08:32.449Z,50.15
2017-10-01T06:11:00.066Z,57.75
2017-10-01T06:13:27.950Z,46.65
2017-10-01T06:15:55.569Z,61.88
2017-10-01T06:18:23.193Z,51.90
2017-10-01T06:20:50.774Z,39.72
2017-10-01T06:23:18.396Z,48.55
2017-10-01T06:25:46.713Z,61.75
2017-10-01T06:28:14.329Z,43.70
2017-10-01T06:30:41.901Z,33.92
2017-10-01T06:33:09.509Z,39.00
2017-10-01T06:35:37.157Z,35.40
2017-10-01T06:38:04.799Z,38.63
2017-10-01T06:40:32.388Z,40.92
2017-10-01T06:43:00.011Z,36.25
2017-10-01T06:45:27.599Z,30.08
2017-10-01T06:47:55.907Z,32.28
2017-10-01T06:50:23.537Z,30.45
2017-10-01T06:52:51.152Z,36.85
2017-10-01T06:55:19.661Z,31.80
2017-10-01T06:57:48.416Z,27.45
2017-10-01T07:00:16.001Z,29.25
2017-10-01T07:02:43.632Z,52.88
2017-10-01T07:05:12.231Z,27.55
2017-10-01T07:07:40.593Z,31.02
2017-10-01T07:10:09.030Z,28.60
2017-10-01T07:12:36.625Z,32.35
2017-10-01T07:15:05.055Z,33.78
2017-10-01T07:17:32.640Z,34.30
2017-10-01T07:20:00.248Z,27.65
2017-10-01T07:22:29.084Z,26.40
2017-10-01T07:24:56.760Z,29.58
2017-10-01T07:27:24.346Z,27.30
2017-10-01T07:29:53.616Z,29.30
2017-10-01T07:32:21.299Z,32.50
2017-10-01T07:34:48.919Z,25.58
2017-10-01T07:37:16.525Z,26.15
2017-10-01T07:39:44.125Z,27.10
2017-10-01T07:42:11.777Z,28.92
2017-10-01T07:44:39.386Z,23.75
2017-10-01T07:47:06.970Z,24.83
2017-10-01T07:49:35.359Z,22.58
2017-10-01T07:52:03.943Z,24.45
2017-10-01T07:54:32.337Z,27.73
2017-10-01T07:56:59.969Z,24.95
2017-10-01T07:59:28.362Z,21.92
2017-10-01T08:01:56.790Z,21.83
2017-10-01T08:04:24.470Z,20.23
2017-10-01T08:06:52.841Z,21.23
2017-10-01T08:09:20.412Z,24.73
2017-10-01T08:11:48.030Z,23.70
2017-10-01T08:14:15.648Z,24.03
2017-10-01T08:16:43.304Z,21.87
2017-10-01T08:19:11.695Z,29.90
2017-10-01T08:21:40.081Z,21.90
2017-10-01T08:24:08.445Z,26.30
2017-10-01T08:26:36.085Z,21.60
2017-10-01T08:29:04.506Z,28.93
2017-10-01T08:31:32.101Z,23.10
2017-10-01T08:34:00.501Z,17.20
2017-10-01T08:36:28.088Z,13.87
2017-10-01T08:38:55.783Z,18.10
2017-10-01T08:41:23.434Z,17.67
2017-10-01T08:43:52.150Z,22.30
2017-10-01T08:46:19.741Z,22.27
2017-10-01T08:48:47.364Z,18.87
2017-10-01T08:51:15.007Z,13.87
2017-10-01T08:53:43.530Z,25.07
2017-10-01T08:56:11.117Z,17.13
2017-10-01T08:58:38.756Z,16.87
2017-10-01T09:01:07.350Z,18.70
2017-10-01T09:03:35.020Z,12.37
2017-10-01T09:06:03.412Z,19.30
2017-10-01T09:08:31.004Z,16.23
2017-10-01T09:10:58.613Z,14.83
2017-10-01T09:13:26.905Z,17.43
2017-10-01T09:15:54.509Z,14.17
2017-10-01T09:18:22.083Z,11.27
2017-10-01T09:20:49.738Z,18.43
2017-10-01T09:23:18.185Z,12.47
2017-10-01T09:25:46.608Z,10.97
2017-10-01T09:28:14.241Z,13.50
2017-10-01T09:30:41.849Z,12.17
2017-10-01T09:33:09.491Z,14.23
2017-10-01T09:35:37.078Z,11.40
2017-10-01T09:38:04.718Z,13.87
2017-10-01T09:40:32.331Z,16.20
2017-10-01T09:43:00.688Z,15.67
2017-10-01T09:45:28.296Z,12.67
2017-10-01T09:47:56.998Z,15.97
2017-10-01T09:50:24.757Z,9.60
2017-10-01T09:52:52.356Z,11.77
2017-10-01T09:55:19.934Z,10.47
2017-10-01T09:57:47.531Z,9.07
2017-10-01T10:00:15.147Z,7.83
2017-10-01T10:02:43.561Z,9.47
2017-10-01T10:05:11.186Z,11.83
2017-10-01T10:07:38.784Z,10.30
2017-10-01T10:10:06.359Z,9.93
2017-10-01T10:12:33.985Z,8.23
2017-10-01T10:15:02.372Z,7.83
2017-10-01T10:17:30.733Z,12.13
2017-10-01T10:19:58.466Z,12.50
2017-10-01T10:22:26.041Z,9.43
2017-10-01T10:24:53.656Z,7.17
2017-10-01T10:27:21.256Z,9.40
2017-10-01T10:29:49.000Z,10.87
2017-10-01T10:32:16.612Z,7.77
2017-10-01T10:34:44.241Z,17.07
2017-10-01T10:37:11.942Z,8.10
2017-10-01T10:39:40.337Z,6.73
2017-10-01T10:42:08.026Z,5.40
2017-10-01T10:44:35.732Z,3.80
2017-10-01T10:47:04.128Z,8.73
2017-10-01T10:49:32.488Z,6.03
2017-10-01T10:52:00.858Z,3.97
2017-10-01T10:54:28.452Z,8.27
2017-10-01T10:56:56.020Z,8.23
2017-10-01T10:59:23.607Z,5.70
2017-10-01T11:01:51.991Z,6.20
2017-10-01T11:04:19.617Z,6.80
2017-10-01T11:06:47.723Z,11.13
2017-10-01T11:09:15.301Z,6.60
2017-10-01T11:11:42.953Z,9.43
2017-10-01T11:14:10.784Z,5.40
2017-10-01T11:16:38.461Z,4.20
2017-10-01T11:19:06.129Z,10.37
2017-10-01T11:21:33.704Z,4.23
2017-10-01T11:24:01.430Z,6.13
2017-10-01T11:26:29.055Z,8.17
2017-10-01T11:28:56.640Z,5.83
2017-10-01T11:31:24.305Z,5.93
2017-10-01T11:33:51.901Z,8.80
2017-10-01T11:36:19.560Z,6.43
2017-10-01T11:38:47.227Z,6.83
2017-10-01T11:41:15.619Z,10.17
2017-10-01T11:43:43.253Z,6.43
2017-10-01T11:46:10.893Z,6.83
2017-10-01T11:48:38.480Z,9.93
2017-10-01T11:51:06.106Z,3.47
2017-10-01T11:53:33.706Z,7.93
2017-10-01T11:56:01.352Z,4.33
2017-10-01T11:58:28.945Z,5.53
2017-10-01T12:00:56.588Z,9.37
2017-10-01T12:03:24.205Z,10.30
2017-10-01T12:05:52.531Z,3.60
2017-10-01T12:08:20.150Z,5.27
2017-10-01T12:10:48.515Z,4.53
2017-10-01T12:13:16.891Z,7.40
2017-10-01T12:15:44.510Z,8.50
2017-10-01T12:18:12.167Z,5.30
2017-10-01T12:20:39.759Z,8.73
2017-10-01T12:23:07.376Z,5.20
2017-10-01T12:25:34.999Z,10.53
2017-10-01T12:28:02.612Z,5.93
2017-10-01T12:30:31.099Z,7.83
2017-10-01T12:32:58.691Z,7.70
2017-10-01T12:35:27.157Z,5.20
2017-10-01T12:37:55.304Z,5.47
2017-10-01T12:40:22.901Z,7.20
2017-10-01T12:42:50.524Z,8.47
2017-10-01T12:45:18.114Z,10.37
2017-10-01T12:47:45.708Z,3.83
2017-10-01T12:50:14.016Z,9.27
2017-10-01T12:52:41.656Z,6.40
2017-10-01T12:55:09.271Z,12.53
2017-10-01T12:57:36.865Z,6.87
2017-10-01T13:00:05.252Z,10.53
2017-10-01T13:02:32.832Z,4.73
2017-10-01T13:05:00.450Z,7.70
2017-10-01T13:07:28.081Z,3.90
2017-10-01T13:09:55.667Z,4.27
2017-10-01T13:12:23.267Z,6.20
2017-10-01T13:14:50.956Z,6.63
2017-10-01T13:17:18.670Z,7.00
2017-10-01T13:19:47.306Z,4.53
2017-10-01T13:22:14.857Z,12.70
2017-10-01T13:24:42.444Z,3.23
2017-10-01T13:27:10.044Z,4.80
2017-10-01T13:29:38.455Z,4.43
2017-10-01T13:32:06.106Z,3.30
2017-10-01T13:34:33.693Z,4.73
2017-10-01T13:37:01.313Z,8.03
2017-10-01T13:39:28.927Z,5.33
2017-10-01T13:41:56.982Z,4.27
2017-10-01T13:44:24.542Z,5.40
2017-10-01T13:46:52.124Z,4.20
2017-10-01T13:49:19.748Z,5.47
2017-10-01T13:51:47.336Z,3.57
2017-10-01T13:54:15.055Z,2.13
2017-10-01T13:56:42.652Z,6.07
2017-10-01T13:59:10.304Z,4.30
2017-10-01T14:01:37.982Z,5.43
2017-10-01T14:04:05.605Z,2.50
2017-10-01T14:06:33.225Z,4.77
2017-10-01T14:09:01.149Z,6.40
2017-10-01T14:11:28.804Z,3.93
2017-10-01T14:13:56.404Z,12.30
2017-10-01T14:16:24.022Z,1.53
2017-10-01T14:18:51.597Z,3.57
2017-10-01T14:21:19.264Z,2.93
2017-10-01T14:23:47.214Z,4.60
2017-10-01T14:26:14.779Z,7.30
2017-10-01T14:28:43.161Z,9.73
2017-10-01T14:31:27.350Z,2.10
2017-10-01T14:33:55.744Z,2.20
2017-10-01T14:36:24.112Z,1.00
2017-10-01T14:38:52.515Z,2.70
2017-10-01T14:41:20.904Z,3.47
2017-10-01T14:43:48.500Z,1.83
2017-10-01T14:46:16.065Z,3.30
2017-10-01T14:48:43.874Z,2.70
2017-10-01T14:51:12.318Z,3.13
2017-10-01T14:53:39.929Z,8.43
2017-10-01T14:56:07.798Z,3.67
2017-10-01T14:58:35.388Z,3.27
2017-10-01T15:01:03.101Z,2.37
2017-10-01T15:03:31.478Z,1.67
2017-10-01T15:05:59.050Z,4.27
2017-10-01T15:08:27.483Z,3.63
2017-10-01T15:13:29.209Z,5.77
2017-10-01T15:15:56.748Z,3.00
2017-10-01T15:18:25.186Z,6.67
2017-10-01T15:20:52.827Z,2.47
2017-10-01T15:23:21.252Z,2.13
2017-10-01T15:25:50.434Z,1.30
2017-10-01T15:28:18.826Z,5.80
2017-10-01T15:30:46.477Z,4.73
2017-10-01T15:33:14.157Z,1.27
2017-10-01T15:35:41.738Z,3.90
2017-10-01T15:38:10.322Z,3.93
2017-10-01T15:40:38.687Z,5.87
2017-10-01T15:43:07.081Z,4.70
2017-10-01T15:45:35.407Z,7.63
2017-10-01T15:48:03.015Z,6.53
2017-10-01T15:50:30.582Z,3.30
2017-10-01T15:52:58.242Z,3.30
2017-10-01T15:55:25.795Z,8.27
2017-10-01T15:57:54.189Z,6.43
2017-10-01T16:00:21.817Z,3.63
2017-10-01T16:02:50.978Z,3.90
2017-10-01T16:05:18.635Z,4.50
2017-10-01T16:07:46.304Z,4.53
2017-10-01T16:10:14.672Z,4.70
2017-10-01T16:12:42.286Z,3.70
2017-10-01T16:15:10.991Z,3.10
2017-10-01T16:17:39.476Z,6.80
2017-10-01T16:20:07.146Z,12.13
2017-10-01T16:22:34.752Z,4.10
2017-10-01T16:25:02.349Z,6.73
2017-10-01T16:27:30.716Z,4.93
2017-10-01T16:29:58.602Z,5.40
2017-10-01T16:32:26.299Z,4.30
2017-10-01T16:34:53.871Z,4.60
2017-10-01T16:37:21.530Z,7.73
2017-10-01T16:39:49.852Z,4.93
2017-10-01T16:42:17.499Z,5.20
2017-10-01T16:44:45.203Z,6.43
2017-10-01T16:47:13.028Z,5.87
2017-10-01T16:49:40.693Z,7.87
2017-10-01T16:52:08.361Z,5.47
2017-10-01T16:54:35.990Z,4.13
2017-10-01T16:57:04.360Z,7.07
2017-10-01T16:59:32.720Z,4.83
2017-10-01T17:02:00.322Z,5.23
2017-10-01T17:04:28.837Z,4.67
2017-10-01T17:06:56.542Z,8.30
2017-10-01T17:09:24.930Z,2.80
2017-10-01T17:11:53.327Z,6.20
2017-10-01T17:14:20.915Z,6.63
2017-10-01T17:16:48.778Z,8.20
2017-10-01T17:19:16.413Z,5.50
2017-10-01T17:21:44.045Z,6.03
2017-10-01T17:24:11.634Z,6.13
2017-10-01T17:26:39.300Z,9.63
2017-10-01T17:29:07.694Z,6.30
2017-10-01T17:31:36.098Z,8.30
2017-10-01T17:34:03.730Z,7.67
2017-10-01T17:36:31.363Z,9.33
2017-10-01T17:38:59.054Z,6.90
2017-10-01T17:41:26.679Z,10.33
2017-10-01T17:43:54.279Z,7.13
2017-10-01T17:46:21.875Z,6.33
2017-10-01T17:48:49.496Z,6.53
2017-10-01T17:51:17.134Z,10.40
2017-10-01T17:53:45.501Z,13.33
2017-10-01T17:56:13.114Z,7.90
2017-10-01T17:58:41.500Z,5.93
2017-10-01T18:01:09.238Z,5.70
2017-10-01T18:03:36.849Z,5.47
2017-10-01T18:06:04.452Z,6.10
2017-10-01T18:08:32.828Z,7.60
2017-10-01T18:11:01.177Z,9.80
2017-10-01T18:13:28.802Z,6.40
2017-10-01T18:15:56.375Z,8.77
2017-10-01T18:18:23.953Z,10.90
2017-10-01T18:20:51.540Z,8.23
2017-10-01T18:23:20.012Z,7.60
2017-10-01T18:25:48.389Z,7.23
2017-10-01T18:28:16.760Z,11.23
2017-10-01T18:30:44.395Z,10.37
2017-10-01T18:33:11.956Z,5.47
2017-10-01T18:35:39.625Z,8.77
2017-10-01T18:38:07.279Z,5.57
2017-10-01T18:40:34.885Z,7.57
2017-10-01T18:43:02.501Z,4.97
2017-10-01T18:45:30.101Z,9.30
2017-10-01T18:47:57.704Z,7.17
2017-10-01T18:50:25.269Z,9.60
2017-10-01T18:52:52.903Z,9.30
2017-10-01T18:55:20.649Z,8.00
2017-10-01T18:57:48.264Z,6.97
2017-10-01T19:00:15.837Z,15.17
2017-10-01T19:02:43.467Z,8.07
2017-10-01T19:05:11.054Z,4.53
2017-10-01T19:07:38.657Z,8.10
2017-10-01T19:10:07.035Z,14.30
2017-10-01T19:12:36.064Z,11.87
2017-10-01T19:15:03.713Z,7.67
2017-10-01T19:17:31.361Z,8.43
2017-10-01T19:19:58.951Z,4.40
2017-10-01T19:22:26.550Z,6.97
2017-10-01T19:24:54.108Z,7.00
2017-10-01T19:27:21.703Z,5.87
2017-10-01T19:29:49.346Z,13.57
2017-10-01T19:32:17.730Z,4.20
2017-10-01T19:34:46.080Z,6.50
2017-10-01T19:37:13.640Z,5.23
2017-10-01T19:39:41.246Z,6.80
2017-10-01T19:42:08.972Z,17.73
2017-10-01T19:44:36.577Z,8.90
2017-10-01T19:47:04.196Z,8.03
2017-10-01T19:49:31.801Z,4.30
2017-10-01T19:51:59.418Z,11.30
2017-10-01T19:54:27.057Z,10.60
2017-10-01T19:56:54.682Z,10.97
2017-10-01T19:59:22.318Z,6.20
2017-10-01T20:01:50.703Z,8.00
2017-10-01T20:04:18.298Z,7.13
2017-10-01T20:06:45.963Z,13.10
2017-10-01T20:09:13.591Z,8.90
2017-10-01T20:11:42.110Z,12.97
2017-10-01T20:14:09.755Z,7.40
2017-10-01T20:16:37.362Z,5.73
2017-10-01T20:19:04.962Z,7.00
2017-10-01T20:21:32.596Z,6.47
2017-10-01T20:24:01.336Z,5.63
2017-10-01T20:26:28.949Z,9.20
2017-10-01T20:28:57.327Z,6.80
2017-10-01T20:31:25.717Z,9.60
2017-10-01T20:33:54.070Z,12.30
2017-10-01T20:36:21.780Z,6.17
2017-10-01T20:38:49.403Z,7.53
2017-10-01T20:41:17.772Z,4.30
2017-10-01T20:43:45.380Z,3.70
2017-10-01T20:46:13.065Z,4.60
2017-10-01T20:48:40.646Z,5.87
2017-10-01T20:51:09.088Z,8.83
2017-10-01T20:53:36.764Z,7.43
2017-10-01T20:56:04.361Z,5.67
2017-10-01T20:58:31.933Z,10.17
2017-10-01T21:01:00.418Z,7.73
2017-10-01T21:03:28.768Z,3.37
2017-10-01T21:05:56.370Z,7.77
2017-10-01T21:08:24.040Z,8.03
2017-10-01T21:10:51.716Z,6.60
2017-10-01T21:13:19.313Z,16.43
2017-10-01T21:15:46.912Z,5.30
2017-10-01T21:18:14.505Z,11.13
2017-10-01T21:20:42.317Z,4.83
2017-10-01T21:23:09.969Z,5.43
2017-10-01T21:25:37.552Z,4.20
2017-10-01T21:28:06.543Z,9.80
2017-10-01T21:30:34.225Z,10.77
2017-10-01T21:33:01.871Z,6.97
2017-10-01T21:35:30.230Z,5.60
2017-10-01T21:37:57.864Z,10.70
2017-10-01T21:40:25.507Z,6.07
2017-10-01T21:42:53.107Z,10.50
2017-10-01T21:45:20.719Z,6.03
2017-10-01T21:47:48.328Z,10.50
2017-10-01T21:50:15.965Z,5.73
2017-10-01T21:52:43.540Z,4.80
2017-10-01T21:55:11.215Z,5.37
2017-10-01T21:57:39.343Z,6.50
2017-10-01T22:00:07.877Z,11.83
2017-10-01T22:02:35.484Z,7.20
2017-10-01T22:05:03.709Z,8.57
2017-10-01T22:07:31.314Z,4.97
2017-10-01T22:09:58.870Z,6.97
2017-10-01T22:12:26.472Z,5.53
2017-10-01T22:14:54.078Z,6.23
2017-10-01T22:17:21.676Z,7.37
2017-10-01T22:19:49.230Z,11.73
2017-10-01T22:22:16.826Z,6.20
2017-10-01T22:24:44.407Z,6.93
2017-10-01T22:27:12.112Z,7.17
2017-10-01T22:29:39.729Z,6.60
2017-10-01T22:32:07.328Z,5.17
2017-10-01T22:34:34.899Z,6.70
2017-10-01T22:37:02.472Z,3.80
2017-10-01T22:39:30.121Z,7.93
2017-10-01T22:41:57.794Z,6.40
2017-10-01T22:44:25.383Z,4.57
2017-10-01T22:46:52.994Z,5.77
2017-10-01T22:49:20.688Z,8.13
2017-10-01T22:51:48.299Z,8.77
2017-10-01T22:54:15.884Z,17.67
2017-10-01T22:56:43.516Z,5.67
2017-10-01T22:59:11.098Z,8.73
2017-10-01T23:01:38.705Z,6.13
2017-10-01T23:04:06.318Z,5.60
2017-10-01T23:06:33.913Z,5.50
2017-10-01T23:09:01.540Z,4.37
2017-10-01T23:11:29.929Z,5.00
2017-10-01T23:13:57.552Z,2.80
2017-10-01T23:16:25.140Z,5.23
2017-10-01T23:18:52.747Z,5.80
2017-10-01T23:21:20.370Z,6.43
2017-10-01T23:23:48.439Z,4.90
2017-10-01T23:26:16.005Z,6.70
2017-10-01T23:28:43.597Z,6.97
2017-10-01T23:31:11.189Z,3.10
2017-10-01T23:33:38.755Z,6.60
2017-10-01T23:36:06.352Z,5.70
2017-10-01T23:38:33.972Z,2.60
2017-10-01T23:41:01.556Z,8.10
2017-10-01T23:43:29.223Z,6.70
2017-10-01T23:45:56.818Z,3.90
2017-10-01T23:48:24.449Z,7.67
2017-10-01T23:50:52.036Z,16.63
2017-10-01T23:53:19.659Z,6.43
2017-10-01T23:55:48.191Z,5.23
2017-10-01T23:58:16.552Z,6.27
